createdAt,value
2018-02-22T00:02:19.586Z,25.70
2018-02-22T00:04:47.074Z,27.70
2018-02-22T00:07:14.863Z,26.87
2018-02-22T00:09:42.356Z,25.13
2018-02-22T00:12:09.832Z,25.47
2018-02-22T00:14:37.310Z,25.97
2018-02-22T00:17:04.790Z,28.07
2018-02-22T00:19:32.283Z,26.67
2018-02-22T00:21:59.764Z,24.47
2018-02-22T00:24:27.256Z,25.67
2018-02-22T00:26:55.515Z,26.80
2018-02-22T00:29:22.995Z,22.23
2018-02-22T00:31:50.483Z,24.77
2018-02-22T00:34:18.758Z,25.27
2018-02-22T00:36:46.265Z,24.60
2018-02-22T00:39:13.955Z,25.43
2018-02-22T00:41:42.207Z,25.57
2018-02-22T00:44:09.682Z,24.23
2018-02-22T00:46:37.939Z,24.87
2018-02-22T00:49:05.423Z,25.33
2018-02-22T00:51:33.681Z,23.93
2018-02-22T00:54:01.943Z,25.10
2018-02-22T00:56:29.453Z,26.77
2018-02-22T00:58:56.943Z,25.33
2018-02-22T01:01:24.534Z,24.60
2018-02-22T01:03:52.802Z,24.40
2018-02-22T01:06:20.296Z,23.40
2018-02-22T01:08:47.808Z,25.50
2018-02-22T01:11:15.285Z,26.23
2018-02-22T01:13:43.550Z,23.50
2018-02-22T01:16:11.812Z,25.50
2018-02-22T01:18:39.295Z,23.63
2018-02-22T01:21:07.534Z,25.30
2018-02-22T01:23:35.039Z,25.50
2018-02-22T01:26:03.506Z,24.53
2018-02-22T01:28:31.764Z,23.00
2018-02-22T01:30:59.249Z,24.43
2018-02-22T01:33:26.707Z,24.93
2018-02-22T01:35:54.206Z,25.23
2018-02-22T01:38:21.689Z,25.43
2018-02-22T01:40:49.946Z,25.90
2018-02-22T01:43:17.422Z,26.57
2018-02-22T01:45:45.695Z,25.30
2018-02-22T01:48:13.165Z,25.50
2018-02-22T01:50:41.406Z,24.83
2018-02-22T01:53:08.907Z,25.23
2018-02-22T01:55:36.412Z,22.73
2018-02-22T01:58:03.883Z,26.27
2018-02-22T02:00:31.382Z,26.10
2018-02-22T02:02:58.862Z,23.90
2018-02-22T02:05:26.365Z,24.83
2018-02-22T02:07:54.642Z,25.03
2018-02-22T02:10:22.906Z,24.00
2018-02-22T02:12:50.408Z,24.23
2018-02-22T02:15:17.899Z,24.40
2018-02-22T02:17:45.402Z,26.47
2018-02-22T02:20:12.885Z,24.73
2018-02-22T02:22:40.362Z,24.67
2018-02-22T02:25:07.855Z,25.07
2018-02-22T02:27:35.343Z,23.17
2018-02-22T02:30:02.826Z,24.23
2018-02-22T02:32:30.335Z,25.03
2018-02-22T02:34:57.839Z,23.30
2018-02-22T02:37:25.304Z,22.87
2018-02-22T02:39:52.790Z,22.73
2018-02-22T02:42:20.272Z,23.27
2018-02-22T02:44:47.752Z,24.57
2018-02-22T02:47:15.241Z,19.27
2018-02-22T02:49:43.516Z,24.50
2018-02-22T02:52:10.996Z,24.47
2018-02-22T02:54:39.253Z,24.00
2018-02-22T02:57:06.751Z,25.77
2018-02-22T02:59:34.246Z,24.17
2018-02-22T03:02:01.823Z,24.07
2018-02-22T03:04:29.607Z,25.83
2018-02-22T03:06:57.875Z,23.97
2018-02-22T03:09:26.129Z,26.27
2018-02-22T03:11:53.615Z,25.33
2018-02-22T03:14:21.869Z,25.00
2018-02-22T03:16:49.336Z,25.67
2018-02-22T03:19:17.590Z,25.83
2018-02-22T03:21:46.601Z,26.77
2018-02-22T03:24:14.845Z,24.27
2018-02-22T03:26:42.343Z,24.33
2018-02-22T03:29:10.603Z,22.70
2018-02-22T03:31:38.859Z,23.33
2018-02-22T03:34:06.340Z,25.23
2018-02-22T03:36:34.603Z,24.93
2018-02-22T03:39:02.073Z,23.73
2018-02-22T03:41:30.325Z,25.93
2018-02-22T03:43:57.807Z,23.30
2018-02-22T03:46:26.050Z,23.37
2018-02-22T03:48:53.547Z,25.07
2018-02-22T03:51:21.029Z,24.17
2018-02-22T03:53:48.512Z,25.27
2018-02-22T03:56:16.024Z,24.83
2018-02-22T03:58:43.757Z,25.60
2018-02-22T04:01:11.250Z,26.10
2018-02-22T04:03:38.743Z,25.90
2018-02-22T04:06:06.225Z,24.87
2018-02-22T04:08:34.483Z,25.17
2018-02-22T04:11:01.969Z,23.80
2018-02-22T04:13:30.215Z,25.40
2018-02-22T04:15:57.739Z,23.77
2018-02-22T04:18:25.243Z,21.33
2018-02-22T04:20:53.497Z,23.33
2018-02-22T04:23:20.983Z,25.93
2018-02-22T04:25:49.236Z,23.37
2018-02-22T04:28:17.507Z,22.90
2018-02-22T04:30:44.988Z,24.87
2018-02-22T04:33:12.500Z,23.53
2018-02-22T04:35:39.993Z,23.83
2018-02-22T04:38:07.562Z,22.30
2018-02-22T04:40:35.799Z,21.50
2018-02-22T04:43:03.300Z,22.47
2018-02-22T04:45:31.548Z,22.33
2018-02-22T04:47:59.051Z,20.77
2018-02-22T04:50:26.522Z,21.27
2018-02-22T04:52:54.023Z,21.00
2018-02-22T04:55:21.494Z,19.43
2018-02-22T04:57:49.733Z,21.57
2018-02-22T05:00:17.197Z,19.83
2018-02-22T05:02:46.339Z,21.17
2018-02-22T05:05:13.980Z,20.57
2018-02-22T05:07:42.300Z,20.43
2018-02-22T05:10:09.796Z,18.47
2018-02-22T05:12:37.631Z,19.20
2018-02-22T05:15:05.925Z,18.37
2018-02-22T05:17:33.390Z,17.93
2018-02-22T05:20:01.656Z,18.30
2018-02-22T05:22:29.146Z,17.47
2018-02-22T05:24:56.660Z,15.67
2018-02-22T05:27:24.159Z,17.37
2018-02-22T05:29:51.661Z,15.63
2018-02-22T05:32:19.149Z,16.50
2018-02-22T05:34:47.420Z,16.03
2018-02-22T05:37:14.903Z,18.40
2018-02-22T05:39:42.389Z,14.93
2018-02-22T05:42:09.884Z,16.60
2018-02-22T05:44:37.748Z,17.03
2018-02-22T05:47:05.327Z,18.00
2018-02-22T05:49:33.687Z,17.17
2018-02-22T05:52:01.187Z,18.83
2018-02-22T05:54:28.704Z,17.43
2018-02-22T05:56:56.179Z,17.67
2018-02-22T05:59:24.423Z,20.10
2018-02-22T06:01:51.944Z,19.77
2018-02-22T06:04:19.437Z,15.90
2018-02-22T06:06:47.785Z,15.33
2018-02-22T06:09:16.087Z,15.57
2018-02-22T06:11:43.600Z,14.33
2018-02-22T06:14:11.087Z,14.57
2018-02-22T06:16:38.606Z,16.20
2018-02-22T06:19:06.084Z,15.63
2018-02-22T06:21:33.569Z,15.00
2018-02-22T06:24:01.085Z,13.07
2018-02-22T06:26:28.572Z,16.97
2018-02-22T06:28:56.047Z,17.40
2018-02-22T06:31:23.552Z,16.33
2018-02-22T06:33:51.019Z,17.20
2018-02-22T06:36:18.525Z,18.27
2018-02-22T06:38:46.768Z,18.40
2018-02-22T06:41:14.254Z,17.63
2018-02-22T06:43:41.722Z,19.37
2018-02-22T06:46:09.988Z,18.23
2018-02-22T06:48:38.261Z,19.17
2018-02-22T06:51:06.521Z,20.50
2018-02-22T06:53:36.079Z,20.37
2018-02-22T06:56:03.562Z,20.13
2018-02-22T06:58:31.168Z,15.67
2018-02-22T07:00:59.460Z,20.80
2018-02-22T07:03:26.944Z,18.93
2018-02-22T07:05:54.443Z,20.70
2018-02-22T07:08:24.308Z,19.50
2018-02-22T07:10:51.779Z,19.33
2018-02-22T07:13:19.296Z,17.57
2018-02-22T07:15:46.792Z,17.77
2018-02-22T07:18:14.277Z,15.07
2018-02-22T07:20:41.744Z,17.23
2018-02-22T07:23:16.788Z,15.53
2018-02-22T07:25:37.453Z,18.47
2018-02-22T07:28:05.779Z,17.20
2018-02-22T07:30:34.023Z,16.33
2018-02-22T07:33:01.550Z,15.10
2018-02-22T07:35:29.026Z,14.07
2018-02-22T07:37:56.505Z,15.43
2018-02-22T07:40:23.975Z,14.83
2018-02-22T07:42:51.487Z,13.97
2018-02-22T07:45:18.993Z,11.33
2018-02-22T07:47:46.500Z,12.73
2018-02-22T07:50:14.005Z,12.67
2018-02-22T07:52:41.468Z,11.37
2018-02-22T07:55:08.954Z,12.27
2018-02-22T07:57:36.418Z,14.07
2018-02-22T08:00:03.956Z,12.30
2018-02-22T08:02:31.399Z,10.10
2018-02-22T08:04:58.886Z,10.73
2018-02-22T08:07:26.371Z,11.53
2018-02-22T08:09:54.631Z,11.13
2018-02-22T08:12:22.889Z,9.83
2018-02-22T08:14:50.384Z,12.57
2018-02-22T08:17:17.880Z,12.30
2018-02-22T08:19:46.502Z,12.13
2018-02-22T08:22:15.181Z,11.27
2018-02-22T08:24:42.657Z,9.80
2018-02-22T08:27:10.921Z,9.50
2018-02-22T08:29:38.644Z,8.87
2018-02-22T08:32:06.175Z,11.53
2018-02-22T08:34:33.658Z,11.27
2018-02-22T08:37:01.157Z,10.67
2018-02-22T08:39:29.094Z,10.97
2018-02-22T08:41:56.674Z,10.57
2018-02-22T08:44:24.912Z,10.60
2018-02-22T08:46:52.403Z,11.13
2018-02-22T08:49:20.657Z,10.30
2018-02-22T08:51:48.153Z,9.90
2018-02-22T08:54:15.646Z,10.50
2018-02-22T08:56:43.128Z,11.10
2018-02-22T08:59:10.602Z,11.33
2018-02-22T09:01:38.869Z,11.63
2018-02-22T09:04:06.344Z,14.27
2018-02-22T09:06:34.615Z,10.10
2018-02-22T09:09:02.893Z,12.90
2018-02-22T09:11:31.179Z,8.43
2018-02-22T09:13:58.640Z,9.77
2018-02-22T09:16:26.120Z,10.60
2018-02-22T09:18:53.599Z,8.43
2018-02-22T09:21:21.104Z,9.00
2018-02-22T09:23:48.588Z,11.17
2018-02-22T09:26:16.081Z,10.27
2018-02-22T09:28:43.570Z,11.60
2018-02-22T09:31:11.073Z,8.83
2018-02-22T09:33:38.564Z,9.97
2018-02-22T09:36:06.808Z,10.80
2018-02-22T09:38:34.302Z,8.90
2018-02-22T09:41:02.562Z,11.07
2018-02-22T09:43:30.817Z,9.27
2018-02-22T09:45:58.318Z,8.63
2018-02-22T09:48:25.821Z,10.27
2018-02-22T09:50:53.303Z,10.73
2018-02-22T09:53:20.783Z,10.73
2018-02-22T09:55:49.100Z,11.43
2018-02-22T09:58:16.590Z,10.93
2018-02-22T10:00:44.162Z,10.50
2018-02-22T10:03:12.427Z,9.63
2018-02-22T10:05:40.688Z,11.30
2018-02-22T10:08:08.207Z,10.13
2018-02-22T10:10:35.676Z,9.73
2018-02-22T10:13:03.178Z,10.40
2018-02-22T10:15:31.565Z,10.23
2018-02-22T10:18:00.073Z,10.07
2018-02-22T10:20:27.570Z,10.30
2018-02-22T10:22:55.046Z,11.40
2018-02-22T10:25:23.463Z,10.07
2018-02-22T10:27:51.100Z,10.87
2018-02-22T10:30:19.345Z,10.33
2018-02-22T10:32:46.849Z,10.40
2018-02-22T10:35:14.334Z,9.40
2018-02-22T10:37:41.842Z,10.37
2018-02-22T10:40:10.077Z,9.20
2018-02-22T10:42:37.571Z,8.97
2018-02-22T10:45:05.820Z,8.53
2018-02-22T10:47:33.311Z,7.47
2018-02-22T10:50:00.778Z,8.17
2018-02-22T10:52:28.662Z,9.33
2018-02-22T10:54:56.159Z,9.33
2018-02-22T10:57:23.610Z,8.43
2018-02-22T10:59:51.114Z,9.30
2018-02-22T11:02:24.209Z,9.13
2018-02-22T11:04:51.699Z,12.60
2018-02-22T11:07:19.272Z,11.77
2018-02-22T11:09:46.809Z,14.13
2018-02-22T11:12:14.304Z,11.30
2018-02-22T11:14:42.575Z,10.37
2018-02-22T11:17:10.827Z,12.27
2018-02-22T11:19:39.129Z,9.97
2018-02-22T11:22:07.428Z,10.20
2018-02-22T11:24:34.904Z,10.13
2018-02-22T11:27:02.400Z,11.63
2018-02-22T11:29:29.891Z,8.50
2018-02-22T11:31:57.440Z,10.63
2018-02-22T11:34:25.712Z,9.53
2018-02-22T11:36:53.960Z,10.17
2018-02-22T11:39:21.435Z,9.23
2018-02-22T11:41:48.934Z,12.70
2018-02-22T11:44:16.406Z,9.60
2018-02-22T11:46:43.887Z,9.47
2018-02-22T11:49:11.359Z,11.63
2018-02-22T11:51:39.617Z,10.60
2018-02-22T11:54:07.864Z,9.70
2018-02-22T11:56:35.356Z,11.43
2018-02-22T11:59:02.831Z,10.90
2018-02-22T12:01:30.318Z,11.87
2018-02-22T12:03:57.816Z,11.60
2018-02-22T12:06:25.291Z,10.47
2018-02-22T12:08:53.535Z,10.47
2018-02-22T12:11:21.036Z,11.53
2018-02-22T12:13:50.074Z,12.00
2018-02-22T12:16:17.558Z,13.00
2018-02-22T12:18:45.817Z,11.57
2018-02-22T12:21:13.332Z,10.27
2018-02-22T12:23:40.874Z,12.30
2018-02-22T12:26:08.356Z,13.77
2018-02-22T12:28:35.862Z,10.20
2018-02-22T12:31:04.110Z,11.07
2018-02-22T12:33:31.621Z,10.23
2018-02-22T12:35:59.106Z,10.13
2018-02-22T12:38:26.605Z,12.57
2018-02-22T12:40:54.852Z,11.37
2018-02-22T12:43:22.347Z,11.17
2018-02-22T12:45:50.579Z,10.83
2018-02-22T12:48:18.075Z,11.57
2018-02-22T12:50:49.123Z,9.57
2018-02-22T12:53:16.709Z,9.33
2018-02-22T12:55:44.287Z,10.67
2018-02-22T12:58:11.893Z,10.90
2018-02-22T13:00:39.401Z,10.83
2018-02-22T13:03:06.899Z,11.40
2018-02-22T13:05:35.159Z,8.77
2018-02-22T13:08:02.704Z,13.43
2018-02-22T13:10:30.238Z,11.10
2018-02-22T13:12:57.711Z,10.57
2018-02-22T13:15:25.272Z,11.20
2018-02-22T13:17:52.749Z,9.77
2018-02-22T13:20:20.276Z,10.10
2018-02-22T13:22:47.746Z,10.00
2018-02-22T13:25:15.233Z,10.20
2018-02-22T13:27:43.479Z,11.13
2018-02-22T13:30:10.967Z,10.77
2018-02-22T13:32:50.345Z,12.03
2018-02-22T13:35:19.188Z,9.90
2018-02-22T13:40:47.234Z,9.43
2018-02-22T13:43:15.509Z,10.10
2018-02-22T13:45:42.986Z,9.33
2018-02-22T13:48:10.459Z,9.87
2018-02-22T13:50:50.759Z,9.77
2018-02-22T13:53:18.266Z,9.23
2018-02-22T13:55:46.519Z,9.67
2018-02-22T13:58:14.000Z,9.70
2018-02-22T14:00:54.105Z,9.53
2018-02-22T14:03:21.583Z,9.93
2018-02-22T14:05:49.059Z,7.97
2018-02-22T14:08:29.129Z,8.67
2018-02-22T14:10:57.444Z,8.83
2018-02-22T14:13:24.953Z,9.27
2018-02-22T14:15:54.994Z,7.80
2018-02-22T14:18:22.642Z,7.60
2018-02-22T14:20:50.141Z,9.20
2018-02-22T14:23:17.840Z,8.30
2018-02-22T14:25:46.089Z,8.10
2018-02-22T14:28:13.571Z,9.13
2018-02-22T14:30:41.829Z,8.33
2018-02-22T14:33:10.134Z,9.93
2018-02-22T14:35:37.743Z,7.87
2018-02-22T14:38:05.223Z,7.13
2018-02-22T14:40:32.684Z,8.23
2018-02-22T14:43:00.178Z,7.90
2018-02-22T14:45:27.669Z,8.90
2018-02-22T14:47:55.209Z,9.53
2018-02-22T14:50:22.700Z,8.40
2018-02-22T14:52:50.202Z,9.47
2018-02-22T14:55:17.722Z,6.30
2018-02-22T14:57:45.960Z,8.63
2018-02-22T15:00:13.446Z,6.77
2018-02-22T15:02:41.045Z,8.73
2018-02-22T15:05:09.071Z,8.50
2018-02-22T15:07:38.044Z,9.37
2018-02-22T15:10:05.522Z,9.17
2018-02-22T15:12:33.159Z,8.93
2018-02-22T15:15:00.676Z,7.50
2018-02-22T15:17:28.193Z,9.33
2018-02-22T15:19:56.541Z,8.00
2018-02-22T15:22:24.032Z,8.77
2018-02-22T15:24:51.568Z,9.00
2018-02-22T15:27:19.078Z,10.20
2018-02-22T15:29:46.583Z,8.37
2018-02-22T15:32:14.112Z,9.10
2018-02-22T15:34:41.607Z,8.13
2018-02-22T15:37:09.085Z,8.57
2018-02-22T15:39:37.333Z,7.17
2018-02-22T15:42:04.806Z,8.07
2018-02-22T15:44:33.060Z,8.17
2018-02-22T15:47:00.557Z,9.00
2018-02-22T15:49:28.064Z,7.90
2018-02-22T15:51:55.534Z,8.17
2018-02-22T15:54:23.016Z,9.93
2018-02-22T15:56:51.266Z,9.90
2018-02-22T15:59:18.748Z,9.37
2018-02-22T16:01:46.982Z,9.30
2018-02-22T16:04:14.456Z,9.67
2018-02-22T16:06:41.939Z,6.37
2018-02-22T16:09:09.471Z,9.60
2018-02-22T16:11:36.960Z,9.93
2018-02-22T16:14:04.455Z,9.20
2018-02-22T16:16:31.940Z,8.17
2018-02-22T16:19:00.262Z,9.83
2018-02-22T16:21:27.746Z,11.07
2018-02-22T16:23:55.220Z,10.73
2018-02-22T16:26:22.714Z,9.90
2018-02-22T16:28:50.212Z,10.47
2018-02-22T16:31:17.732Z,9.30
2018-02-22T16:33:45.354Z,10.77
2018-02-22T16:36:12.842Z,10.57
2018-02-22T16:38:40.351Z,10.10
2018-02-22T16:41:07.817Z,10.57
2018-02-22T16:43:35.418Z,12.70
2018-02-22T16:46:02.947Z,10.80
2018-02-22T16:48:31.209Z,9.67
2018-02-22T16:50:58.830Z,12.03
2018-02-22T16:53:26.344Z,12.03
2018-02-22T16:55:54.603Z,11.63
2018-02-22T16:58:22.145Z,10.53
2018-02-22T17:00:49.656Z,10.47
2018-02-22T17:03:17.175Z,11.60
2018-02-22T17:05:44.723Z,12.20
2018-02-22T17:08:12.215Z,11.47
2018-02-22T17:10:40.475Z,11.33
2018-02-22T17:13:08.860Z,12.17
2018-02-22T17:15:36.363Z,11.70
2018-02-22T17:18:03.849Z,11.30
2018-02-22T17:20:31.386Z,12.60
2018-02-22T17:22:58.859Z,12.10
2018-02-22T17:25:25.933Z,13.80
2018-02-22T17:27:59.795Z,11.33
2018-02-22T17:30:33.029Z,9.63
2018-02-22T17:33:00.509Z,13.63
2018-02-22T17:35:32.653Z,12.93
2018-02-22T17:38:05.563Z,13.77
2018-02-22T17:40:35.600Z,10.73
2018-02-22T17:43:03.148Z,14.13
2018-02-22T17:45:30.693Z,13.47
2018-02-22T17:47:59.100Z,14.27
2018-02-22T17:50:26.589Z,14.20
2018-02-22T17:52:54.076Z,14.33
2018-02-22T17:55:21.868Z,12.23
2018-02-22T17:57:49.430Z,14.57
2018-02-22T18:00:16.923Z,11.97
2018-02-22T18:02:44.412Z,14.50
2018-02-22T18:05:11.917Z,12.03
2018-02-22T18:07:40.192Z,14.20
2018-02-22T18:10:07.717Z,15.40
2018-02-22T18:12:35.287Z,12.50
2018-02-22T18:15:02.839Z,14.77
2018-02-22T18:17:30.385Z,12.47
2018-02-22T18:19:57.900Z,14.87
2018-02-22T18:22:26.230Z,13.60
2018-02-22T18:24:53.756Z,14.43
2018-02-22T18:27:21.240Z,17.93
2018-02-22T18:29:48.773Z,17.33
2018-02-22T18:32:17.004Z,13.10
2018-02-22T18:34:44.543Z,14.37
2018-02-22T18:37:17.618Z,13.23
2018-02-22T18:39:45.126Z,12.97
2018-02-22T18:42:19.146Z,14.33
2018-02-22T18:44:53.459Z,15.07
2018-02-22T18:47:21.786Z,15.43
2018-02-22T18:49:49.282Z,12.57
2018-02-22T18:52:16.772Z,15.60
2018-02-22T18:54:44.313Z,14.83
2018-02-22T18:57:11.772Z,14.00
2018-02-22T18:59:39.542Z,13.87
2018-02-22T19:02:07.022Z,15.97
2018-02-22T19:04:34.578Z,15.97
2018-02-22T19:07:02.092Z,13.17
2018-02-22T19:09:30.360Z,15.90
2018-02-22T19:11:58.655Z,13.13
2018-02-22T19:14:26.160Z,11.93
2018-02-22T19:16:56.695Z,12.63
2018-02-22T19:19:24.181Z,16.17
2018-02-22T19:21:52.453Z,11.30
2018-02-22T19:24:20.709Z,15.40
2018-02-22T19:26:48.215Z,13.80
2018-02-22T19:29:15.699Z,14.40
2018-02-22T19:31:43.204Z,13.20
2018-02-22T19:34:10.726Z,14.43
2018-02-22T19:36:38.239Z,16.30
2018-02-22T19:39:05.802Z,14.00
2018-02-22T19:41:33.335Z,15.60
2018-02-22T19:44:01.028Z,12.83
2018-02-22T19:46:28.754Z,14.20
2018-02-22T19:48:57.002Z,15.23
2018-02-22T19:51:24.490Z,15.50
2018-02-22T19:53:52.928Z,14.77
2018-02-22T19:56:20.498Z,11.93
2018-02-22T19:58:48.990Z,12.73
2018-02-22T20:01:17.292Z,12.50
2018-02-22T20:03:44.840Z,12.87
2018-02-22T20:06:12.363Z,13.93
2018-02-22T20:08:39.924Z,12.13
2018-02-22T20:11:07.517Z,11.67
2018-02-22T20:13:35.043Z,13.53
2018-02-22T20:16:02.557Z,12.27
2018-02-22T20:18:30.056Z,13.57
2018-02-22T20:20:57.554Z,11.53
2018-02-22T20:23:25.079Z,12.50
2018-02-22T20:25:53.368Z,13.43
2018-02-22T20:28:21.676Z,12.77
2018-02-22T20:30:49.202Z,12.60
2018-02-22T20:33:17.224Z,11.53
2018-02-22T20:35:44.792Z,12.33
2018-02-22T20:38:12.345Z,11.70
2018-02-22T20:40:39.929Z,12.60
2018-02-22T20:43:07.491Z,11.87
2018-02-22T20:45:36.467Z,12.30
2018-02-22T20:48:04.111Z,14.50
2018-02-22T20:50:31.770Z,13.97
2018-02-22T20:52:59.349Z,12.27
2018-02-22T20:55:38.587Z,11.40
2018-02-22T20:58:06.992Z,11.17
2018-02-22T21:00:34.536Z,12.63
2018-02-22T21:03:02.794Z,11.50
2018-02-22T21:05:31.356Z,10.33
2018-02-22T21:08:02.007Z,9.90
2018-02-22T21:10:29.607Z,11.23
2018-02-22T21:12:57.160Z,10.87
2018-02-22T21:15:24.658Z,12.00
2018-02-22T21:17:52.203Z,10.20
2018-02-22T21:20:19.716Z,10.63
2018-02-22T21:22:47.993Z,10.97
2018-02-22T21:25:15.492Z,9.93
2018-02-22T21:27:42.995Z,10.83
2018-02-22T21:30:11.259Z,11.70
2018-02-22T21:32:39.539Z,10.77
2018-02-22T21:35:07.895Z,11.03
2018-02-22T21:37:35.394Z,10.10
2018-02-22T21:40:02.953Z,9.57
2018-02-22T21:42:30.440Z,10.07
2018-02-22T21:44:57.976Z,9.63
2018-02-22T21:47:25.469Z,9.97
2018-02-22T21:49:53.012Z,8.30
2018-02-22T21:52:20.509Z,8.87
2018-02-22T21:54:48.743Z,8.97
2018-02-22T21:57:16.235Z,8.97
2018-02-22T21:59:43.777Z,8.17
2018-02-22T22:02:11.251Z,7.70
2018-02-22T22:04:39.638Z,7.50
2018-02-22T22:07:07.053Z,8.63
2018-02-22T22:09:34.590Z,9.03
2018-02-22T22:12:02.089Z,9.03
2018-02-22T22:14:30.360Z,9.97
2018-02-22T22:16:57.848Z,9.17
2018-02-22T22:19:25.377Z,9.50
2018-02-22T22:21:52.883Z,9.10
2018-02-22T22:24:20.385Z,8.83
2018-02-22T22:26:47.875Z,8.40
2018-02-22T22:29:15.397Z,8.27
2018-02-22T22:31:42.939Z,8.73
2018-02-22T22:34:10.420Z,7.83
2018-02-22T22:36:38.725Z,7.80
2018-02-22T22:39:06.205Z,8.20
2018-02-22T22:41:33.715Z,8.27
2018-02-22T22:44:02.039Z,8.57
2018-02-22T22:46:30.305Z,8.60
2018-02-22T22:48:57.793Z,6.90
2018-02-22T22:51:25.360Z,7.40
2018-02-22T22:53:52.887Z,8.43
2018-02-22T22:56:20.419Z,9.80
2018-02-22T22:58:47.932Z,9.63
2018-02-22T23:01:15.492Z,7.97
2018-02-22T23:03:43.084Z,8.53
2018-02-22T23:06:10.788Z,8.50
2018-02-22T23:08:38.328Z,8.40
2018-02-22T23:11:05.916Z,8.30
2018-02-22T23:13:33.630Z,8.87
2018-02-22T23:16:01.154Z,9.03
2018-02-22T23:18:29.180Z,7.87
2018-02-22T23:20:56.674Z,8.53
2018-02-22T23:23:24.225Z,9.53
2018-02-22T23:25:51.810Z,9.10
2018-02-22T23:28:19.984Z,10.23
2018-02-22T23:30:48.252Z,12.30
2018-02-22T23:33:16.630Z,10.57
2018-02-22T23:35:44.117Z,11.10
2018-02-22T23:38:11.615Z,11.60
2018-02-22T23:40:51.871Z,10.70
2018-02-22T23:43:19.351Z,12.07
2018-02-22T23:45:47.578Z,12.77
2018-02-22T23:48:15.128Z,12.87
2018-02-22T23:50:42.640Z,14.10
2018-02-22T23:53:10.112Z,14.37
2018-02-22T23:55:38.383Z,11.87
2018-02-22T23:58:06.641Z,11.97
